Polaris — JD2797 — position and weather

sailwx.info

Track history (hours):
 
Tides and Currents Weather Stations Pressure Air Temp Water Temp Dewpoint Dewpoint Depression Visibility Wind Speed Wind Dir Waves Ship Positions

Polaris

Last reported at 2016-May-04 21:30 UTC. Time now 2016-May-06 11:11 UTC.
Position N 35°19' E 139°38'.

Length 30 m; draft 2.6 m.

Type: Pilot. MMSI: 431000764.

Date/timePositionNaut miles runAvg speedWind from/ knotsBaromVisibWave heightAir tempDewpointWater temp
2016-May-04 21:30N 35°19' E 139°38'8 8.9
2016-May-04 20:32N 35°24' E 139°46'1212.1
2016-May-04 19:31N 35°12' E 139°47'4 3.7
2016-May-04 18:32N 35°15' E 139°46'  
2016-May-01 10:31N 35°18' E 139°39'6 6.3
2016-May-01 09:32N 35°16' E 139°46'8 8.7
2016-May-01 08:34N 35°25' E 139°45'8 6.8
2016-May-01 07:20N 35°19' E 139°38'0 0.0
2016-May-01 06:30N 35°19' E 139°38'0 0.0
2016-May-01 04:33N 35°19' E 139°38'0 0.0
2016-May-01 03:26N 35°19' E 139°38'0 0.0
2016-May-01 02:28N 35°19' E 139°38'0 0.0
2016-May-01 01:33N 35°19' E 139°38'0 0.0
2016-May-01 00:31N 35°19' E 139°38'0 0.0
2016-Apr-30 23:33N 35°19' E 139°38'0 0.0
2016-Apr-30 22:32N 35°19' E 139°38'4 3.8
2016-Apr-30 21:34N 35°21' E 139°42'4 4.2
2016-Apr-30 20:33N 35°18' E 139°45'7 6.5
2016-Apr-30 19:33N 35°11' E 139°47'10 0.5
2016-Apr-29 23:08N 35°19' E 139°38'5 8.3
2016-Apr-29 22:34N 35°22' E 139°42'6 5.8
2016-Apr-29 21:33N 35°17' E 139°45'7 6.9
2016-Apr-29 20:33N 35°10' E 139°47'11 0.5
2016-Apr-28 21:26N 35°19' E 139°38'9 9.9
2016-Apr-28 20:34N 35°12' E 139°46'1312.5
2016-Apr-28 19:33N 35°25' E 139°43'1 1.1
2016-Apr-28 18:33N 35°26' E 139°42'8 7.8
2016-Apr-28 17:33N 35°19' E 139°38'0 0.0
2016-Apr-28 16:33N 35°19' E 139°38'0 0.0
2016-Apr-28 15:33N 35°19' E 139°38'0 0.0
2016-Apr-28 14:32N 35°19' E 139°38'0 0.0
2016-Apr-28 13:33N 35°19' E 139°38'6 6.0
2016-Apr-28 12:33N 35°23' E 139°43'7 7.0
2016-Apr-28 11:32N 35°16' E 139°47'4 4.3
2016-Apr-28 10:33N 35°12' E 139°47'10 9.6
2016-Apr-28 09:33N 35°19' E 139°38'  
2016-Apr-25 22:19N 35°19' E 139°38'810.8
2016-Apr-25 21:34N 35°26' E 139°42'4 4.3
2016-Apr-25 20:33N 35°25' E 139°47'1212.1
2016-Apr-25 19:33N 35°13' E 139°47'5 5.3
2016-Apr-25 18:33N 35°17' E 139°43'4 4.4
2016-Apr-25 17:32N 35°19' E 139°38'0 0.0
2016-Apr-24 22:32N 35°19' E 139°38'8 7.8
2016-Apr-24 21:33N 35°14' E 139°46'  
Track history (hours):
 
Tides and Currents Weather Stations Pressure Air Temp Water Temp Dewpoint Dewpoint Depression Visibility Wind Speed Wind Dir Waves Ship Positions

Polaris

Last reported at 2016-May-04 21:30 UTC. Time now 2016-May-06 11:11 UTC.
Position N 35°19' E 139°38'.

Length 30 m; draft 2.6 m.

Type: Pilot. MMSI: 431000764.

Date/timePositionNaut miles runAvg speedWind from/ knotsBaromVisibWave heightAir tempDewpointWater temp
2016-May-04 21:30N 35°19' E 139°38'8 8.9
2016-May-04 20:32N 35°24' E 139°46'1212.1
2016-May-04 19:31N 35°12' E 139°47'4 3.7
2016-May-04 18:32N 35°15' E 139°46'  
2016-May-01 10:31N 35°18' E 139°39'6 6.3
2016-May-01 09:32N 35°16' E 139°46'8 8.7
2016-May-01 08:34N 35°25' E 139°45'8 6.8
2016-May-01 07:20N 35°19' E 139°38'0 0.0
2016-May-01 06:30N 35°19' E 139°38'0 0.0
2016-May-01 04:33N 35°19' E 139°38'0 0.0
2016-May-01 03:26N 35°19' E 139°38'0 0.0
2016-May-01 02:28N 35°19' E 139°38'0 0.0
2016-May-01 01:33N 35°19' E 139°38'0 0.0
2016-May-01 00:31N 35°19' E 139°38'0 0.0
2016-Apr-30 23:33N 35°19' E 139°38'0 0.0
2016-Apr-30 22:32N 35°19' E 139°38'4 3.8
2016-Apr-30 21:34N 35°21' E 139°42'4 4.2
2016-Apr-30 20:33N 35°18' E 139°45'7 6.5
2016-Apr-30 19:33N 35°11' E 139°47'10 0.5
2016-Apr-29 23:08N 35°19' E 139°38'5 8.3
2016-Apr-29 22:34N 35°22' E 139°42'6 5.8
2016-Apr-29 21:33N 35°17' E 139°45'7 6.9
2016-Apr-29 20:33N 35°10' E 139°47'11 0.5
2016-Apr-28 21:26N 35°19' E 139°38'9 9.9
2016-Apr-28 20:34N 35°12' E 139°46'1312.5
2016-Apr-28 19:33N 35°25' E 139°43'1 1.1
2016-Apr-28 18:33N 35°26' E 139°42'8 7.8
2016-Apr-28 17:33N 35°19' E 139°38'0 0.0
2016-Apr-28 16:33N 35°19' E 139°38'0 0.0
2016-Apr-28 15:33N 35°19' E 139°38'0 0.0
2016-Apr-28 14:32N 35°19' E 139°38'0 0.0
2016-Apr-28 13:33N 35°19' E 139°38'6 6.0
2016-Apr-28 12:33N 35°23' E 139°43'7 7.0
2016-Apr-28 11:32N 35°16' E 139°47'4 4.3
2016-Apr-28 10:33N 35°12' E 139°47'10 9.6
2016-Apr-28 09:33N 35°19' E 139°38'  
2016-Apr-25 22:19N 35°19' E 139°38'810.8
2016-Apr-25 21:34N 35°26' E 139°42'4 4.3
2016-Apr-25 20:33N 35°25' E 139°47'1212.1
2016-Apr-25 19:33N 35°13' E 139°47'5 5.3
2016-Apr-25 18:33N 35°17' E 139°43'4 4.4
2016-Apr-25 17:32N 35°19' E 139°38'0 0.0
2016-Apr-24 22:32N 35°19' E 139°38'8 7.8
2016-Apr-24 21:33N 35°14' E 139°46'  

Dump ship's entire track history